Time;durP1;ratioP1;P1;durP2;ratioP2;P2;SDS_P1;SDS_P2;PMS_P1;PMS_P2;Temp;Humidity;BMP_temperature;BMP_pressure;BME280_temperature;BME280_humidity;BME280_pressure;Samples;Min_cycle;Max_cycle;Signal;HPM_P1;HPM_P2
2022/02/20 00:01:09;;;;;;;116.65;70.53;;;;;;;;;;5106479;28;20440;-88
2022/02/20 00:03:36;;;;;;;103.72;66.15;;;;;;;;;;5107915;28;20409;-89
2022/02/20 00:06:05;;;;;;;98.32;64.68;;;;;;;;;;5107053;28;21094;-89
2022/02/20 00:08:32;;;;;;;89.95;59.67;;;;;;;;;;5102931;28;20489;-89
2022/02/20 00:10:59;;;;;;;85.35;54.97;;;;;;;;;;5092749;28;20416;-88
2022/02/20 00:13:25;;;;;;;80.90;53.40;;;;;;;;;;5112768;28;20875;-88
2022/02/20 00:15:52;;;;;;;73.63;49.55;;;;;;;;;;5111647;28;20451;-89
2022/02/20 00:18:19;;;;;;;68.93;46.05;;;;;;;;;;5111511;28;20406;-89
2022/02/20 00:20:47;;;;;;;60.92;41.90;;;;;;;;;;5112434;28;20398;-88
2022/02/20 00:23:17;;;;;;;56.17;38.20;;;;;;;;;;5110308;28;20395;-89
2022/02/20 00:25:44;;;;;;;54.88;36.80;;;;;;;;;;5106859;28;20432;-90
2022/02/20 00:28:12;;;;;;;51.45;34.97;;;;;;;;;;5104722;28;20453;-89
2022/02/20 00:30:39;;;;;;;44.17;31.05;;;;;;;;;;5104449;28;20936;-90
2022/02/20 00:33:06;;;;;;;42.22;29.20;;;;;;;;;;5105056;28;20460;-89
2022/02/20 00:35:34;;;;;;;41.75;27.27;;;;;;;;;;5104325;28;20428;-88
2022/02/20 00:38:02;;;;;;;37.55;25.70;;;;;;;;;;5104805;28;20425;-89
2022/02/20 00:40:30;;;;;;;32.50;23.20;;;;;;;;;;5105295;28;20401;-89
2022/02/20 00:42:57;;;;;;;32.20;23.10;;;;;;;;;;5104553;28;20448;-88
2022/02/20 00:45:24;;;;;;;28.85;21.02;;;;;;;;;;5104571;28;20411;-90
2022/02/20 00:47:51;;;;;;;30.92;21.00;;;;;;;;;;5104982;28;20426;-88
2022/02/20 00:50:18;;;;;;;27.65;20.55;;;;;;;;;;5105411;28;20819;-89
2022/02/20 00:52:45;;;;;;;27.43;20.60;;;;;;;;;;5105818;28;20908;-89
2022/02/20 00:55:12;;;;;;;26.55;20.00;;;;;;;;;;5105212;28;20863;-89
2022/02/20 00:57:41;;;;;;;28.20;20.48;;;;;;;;;;5105694;28;20444;-89
2022/02/20 01:00:10;;;;;;;29.30;19.98;;;;;;;;;;5105697;28;20901;-89
2022/02/20 01:02:38;;;;;;;24.85;18.95;;;;;;;;;;5105850;28;20428;-88
2022/02/20 01:05:06;;;;;;;26.20;19.63;;;;;;;;;;5104750;28;20464;-89
2022/02/20 01:07:33;;;;;;;24.70;18.67;;;;;;;;;;5087669;28;20489;-88
2022/02/20 01:10:00;;;;;;;24.45;18.48;;;;;;;;;;5104923;28;20399;-88
2022/02/20 01:12:28;;;;;;;25.13;17.80;;;;;;;;;;5105852;28;20463;-87
2022/02/20 01:14:56;;;;;;;22.70;17.65;;;;;;;;;;5104738;28;20433;-89
2022/02/20 01:17:23;;;;;;;22.55;17.33;;;;;;;;;;5105513;28;20387;-89
2022/02/20 01:19:53;;;;;;;21.42;16.15;;;;;;;;;;5105202;28;20399;-89
2022/02/20 01:22:20;;;;;;;21.52;16.00;;;;;;;;;;5105159;28;20407;-89
2022/02/20 01:24:47;;;;;;;20.25;15.40;;;;;;;;;;5105494;28;20403;-89
2022/02/20 01:27:14;;;;;;;18.30;14.85;;;;;;;;;;5104576;28;20460;-89
2022/02/20 01:29:41;;;;;;;18.60;14.93;;;;;;;;;;5105414;28;20418;-87
2022/02/20 01:32:10;;;;;;;21.10;14.82;;;;;;;;;;5104587;28;20402;-90
2022/02/20 01:34:37;;;;;;;19.65;15.48;;;;;;;;;;5105173;28;20394;-89
2022/02/20 01:37:05;;;;;;;18.80;14.80;;;;;;;;;;5101293;28;20418;-89
2022/02/20 01:39:31;;;;;;;18.20;13.75;;;;;;;;;;5105377;28;20648;-89
2022/02/20 01:41:58;;;;;;;19.00;13.73;;;;;;;;;;5104658;28;20394;-89
2022/02/20 01:44:25;;;;;;;19.80;14.65;;;;;;;;;;5105220;28;20929;-89
2022/02/20 01:46:53;;;;;;;18.20;14.13;;;;;;;;;;5104960;28;20406;-89
2022/02/20 01:49:21;;;;;;;18.50;13.70;;;;;;;;;;5104712;28;21210;-89
2022/02/20 01:51:48;;;;;;;18.75;14.25;;;;;;;;;;5104817;28;20430;-88
2022/02/20 01:54:15;;;;;;;18.38;13.68;;;;;;;;;;5104181;28;20398;-88
2022/02/20 01:56:42;;;;;;;16.77;13.10;;;;;;;;;;5104860;28;20402;-88
2022/02/20 01:59:09;;;;;;;16.88;13.50;;;;;;;;;;5104317;28;20402;-88
2022/02/20 02:01:36;;;;;;;16.03;12.53;;;;;;;;;;5105306;28;21045;-89
2022/02/20 02:04:04;;;;;;;13.48;10.68;;;;;;;;;;5103849;28;20409;-89
2022/02/20 02:06:32;;;;;;;12.77;9.70;;;;;;;;;;5104211;28;20502;-89
2022/02/20 02:09:00;;;;;;;10.65;9.05;;;;;;;;;;5103868;28;20421;-88
2022/02/20 02:11:27;;;;;;;11.15;8.80;;;;;;;;;;5104323;28;20739;-89
2022/02/20 02:13:54;;;;;;;12.57;8.80;;;;;;;;;;5104539;28;20975;-89
2022/02/20 02:16:22;;;;;;;10.38;8.13;;;;;;;;;;5104288;28;20411;-89
2022/02/20 02:18:49;;;;;;;9.77;8.05;;;;;;;;;;5104533;28;20399;-89
2022/02/20 02:21:17;;;;;;;9.52;7.75;;;;;;;;;;5104315;28;20472;-87
2022/02/20 02:23:45;;;;;;;10.20;7.53;;;;;;;;;;5104709;28;20451;-89
2022/02/20 02:26:15;;;;;;;10.65;7.82;;;;;;;;;;5103877;28;20466;-89
2022/02/20 02:28:42;;;;;;;9.73;7.47;;;;;;;;;;5108583;28;20502;-89
2022/02/20 02:31:09;;;;;;;9.15;7.30;;;;;;;;;;5106021;28;20418;-89
2022/02/20 02:33:37;;;;;;;9.03;7.27;;;;;;;;;;5108534;28;20920;-89
2022/02/20 02:36:07;;;;;;;9.90;8.02;;;;;;;;;;5107889;28;20451;-89
2022/02/20 02:38:34;;;;;;;10.02;7.90;;;;;;;;;;5108007;28;20399;-89
2022/02/20 02:41:05;;;;;;;9.40;7.23;;;;;;;;;;5107955;28;20518;-89
2022/02/20 02:43:33;;;;;;;8.20;7.18;;;;;;;;;;5108091;28;20536;-88
2022/02/20 02:46:00;;;;;;;8.57;6.57;;;;;;;;;;5106637;28;20474;-89
2022/02/20 02:48:27;;;;;;;7.78;6.30;;;;;;;;;;5108040;28;20467;-89
2022/02/20 02:50:54;;;;;;;7.65;6.03;;;;;;;;;;5108104;28;20419;-88
2022/02/20 02:53:21;;;;;;;6.80;6.00;;;;;;;;;;5108289;28;20405;-89
2022/02/20 02:55:50;;;;;;;7.85;6.60;;;;;;;;;;5108111;28;20436;-89
2022/02/20 02:58:19;;;;;;;9.73;6.90;;;;;;;;;;5107948;28;20399;-89
2022/02/20 03:00:47;;;;;;;9.73;7.70;;;;;;;;;;5089694;28;20895;-89
2022/02/20 03:03:14;;;;;;;11.93;8.13;;;;;;;;;;5109150;28;20583;-88
2022/02/20 03:05:41;;;;;;;10.20;7.93;;;;;;;;;;5108104;28;20818;-89
2022/02/20 03:08:08;;;;;;;11.57;8.20;;;;;;;;;;5108009;28;20921;-89
2022/02/20 03:10:35;;;;;;;13.63;8.73;;;;;;;;;;5108896;28;20404;-88
2022/02/20 03:13:01;;;;;;;12.48;9.18;;;;;;;;;;5108059;28;20902;-88
2022/02/20 03:15:30;;;;;;;12.77;8.98;;;;;;;;;;5090588;28;20468;-89
2022/02/20 03:17:57;;;;;;;12.73;9.80;;;;;;;;;;5108340;28;20444;-89
2022/02/20 03:20:24;;;;;;;12.73;9.20;;;;;;;;;;5108406;28;21136;-88
2022/02/20 03:22:51;;;;;;;12.07;9.18;;;;;;;;;;5108251;28;20913;-89
2022/02/20 03:25:17;;;;;;;13.57;9.50;;;;;;;;;;5108350;28;20459;-88
2022/02/20 03:27:44;;;;;;;11.57;9.40;;;;;;;;;;5108046;28;20411;-89
2022/02/20 03:30:12;;;;;;;13.85;9.88;;;;;;;;;;5107982;28;20467;-88
2022/02/20 03:32:41;;;;;;;13.18;10.30;;;;;;;;;;5108256;28;20403;-89
2022/02/20 03:35:08;;;;;;;13.60;10.00;;;;;;;;;;5107374;28;20394;-89
2022/02/20 03:37:36;;;;;;;12.38;9.70;;;;;;;;;;5107639;28;20395;-89
2022/02/20 03:40:03;;;;;;;12.75;9.80;;;;;;;;;;5107765;28;20425;-89
2022/02/20 03:42:30;;;;;;;14.10;10.23;;;;;;;;;;5103607;28;20459;-88
2022/02/20 03:44:57;;;;;;;13.20;9.55;;;;;;;;;;5107922;28;20777;-89
2022/02/20 03:47:24;;;;;;;12.15;9.48;;;;;;;;;;5107804;28;20495;-88
2022/02/20 03:49:52;;;;;;;12.95;9.65;;;;;;;;;;5107838;28;20894;-89
2022/02/20 03:52:19;;;;;;;14.63;9.70;;;;;;;;;;5107702;28;20419;-89
2022/02/20 03:54:46;;;;;;;14.43;9.60;;;;;;;;;;5107720;28;20809;-88
2022/02/20 03:57:13;;;;;;;12.55;9.73;;;;;;;;;;5107651;28;20422;-88
2022/02/20 03:59:40;;;;;;;13.48;10.10;;;;;;;;;;5107825;28;21011;-88
2022/02/20 04:02:07;;;;;;;12.73;9.40;;;;;;;;;;5107091;28;20643;-89
2022/02/20 04:04:34;;;;;;;12.63;9.87;;;;;;;;;;5107556;28;20898;-89
2022/02/20 04:07:03;;;;;;;12.55;9.68;;;;;;;;;;5103470;28;20455;-90
2022/02/20 04:09:30;;;;;;;12.55;9.52;;;;;;;;;;5107383;28;20494;-89
2022/02/20 04:11:56;;;;;;;12.77;9.73;;;;;;;;;;5107306;28;20850;-87
2022/02/20 04:14:23;;;;;;;13.93;10.02;;;;;;;;;;5089233;28;20399;-88
2022/02/20 04:16:50;;;;;;;12.40;10.00;;;;;;;;;;5107116;28;20869;-89
2022/02/20 04:19:17;;;;;;;12.48;9.90;;;;;;;;;;5107142;28;20844;-89
2022/02/20 04:21:44;;;;;;;13.02;9.95;;;;;;;;;;5107308;28;20434;-90
2022/02/20 04:24:12;;;;;;;14.05;9.88;;;;;;;;;;5106563;28;20462;-89
2022/02/20 04:26:39;;;;;;;13.93;10.38;;;;;;;;;;5107115;28;20465;-89
2022/02/20 04:29:06;;;;;;;13.20;10.02;;;;;;;;;;5106323;28;20427;-89
2022/02/20 04:31:33;;;;;;;14.40;10.65;;;;;;;;;;5107103;28;20871;-89
2022/02/20 04:34:00;;;;;;;14.33;10.20;;;;;;;;;;5106681;28;20400;-89
2022/02/20 04:36:26;;;;;;;14.02;10.50;;;;;;;;;;5106891;28;20419;-89
2022/02/20 04:38:53;;;;;;;13.80;11.00;;;;;;;;;;5106844;28;20399;-89
2022/02/20 04:41:22;;;;;;;14.38;11.20;;;;;;;;;;5106727;28;20786;-89
2022/02/20 04:43:49;;;;;;;13.60;11.30;;;;;;;;;;5106471;28;20524;-89
2022/02/20 04:46:16;;;;;;;14.45;10.98;;;;;;;;;;5106630;28;20494;-89
2022/02/20 04:48:43;;;;;;;15.00;11.27;;;;;;;;;;5106198;28;20548;-89
2022/02/20 04:51:10;;;;;;;14.65;11.45;;;;;;;;;;5106054;28;20403;-89
2022/02/20 04:53:37;;;;;;;15.23;11.23;;;;;;;;;;5106592;28;20449;-89
2022/02/20 04:56:05;;;;;;;15.38;11.65;;;;;;;;;;5105814;28;20408;-90
2022/02/20 04:58:33;;;;;;;14.55;10.90;;;;;;;;;;5102535;28;20400;-89
2022/02/20 05:01:00;;;;;;;17.10;11.82;;;;;;;;;;5102102;28;20440;-89
2022/02/20 05:03:28;;;;;;;14.80;11.82;;;;;;;;;;5103050;28;20899;-89
2022/02/20 05:05:54;;;;;;;15.63;11.60;;;;;;;;;;5101006;28;20871;-89
2022/02/20 05:08:21;;;;;;;16.08;12.45;;;;;;;;;;5105444;28;20412;-89
2022/02/20 05:10:48;;;;;;;16.65;12.48;;;;;;;;;;5105661;28;20963;-88
2022/02/20 05:13:15;;;;;;;14.13;11.60;;;;;;;;;;5105745;28;20430;-89
2022/02/20 05:15:47;;;;;;;14.83;11.37;;;;;;;;;;5105595;28;20700;-89
2022/02/20 05:18:14;;;;;;;16.80;13.50;;;;;;;;;;5105218;28;20479;-89
2022/02/20 05:20:42;;;;;;;15.38;13.32;;;;;;;;;;5105573;28;20479;-89
2022/02/20 05:23:09;;;;;;;15.13;11.77;;;;;;;;;;5104749;28;20550;-88
2022/02/20 05:25:36;;;;;;;16.58;12.18;;;;;;;;;;5105511;28;20448;-89
2022/02/20 05:28:03;;;;;;;16.33;12.97;;;;;;;;;;5104659;28;20402;-88
2022/02/20 05:30:30;;;;;;;17.58;13.35;;;;;;;;;;5105787;28;20565;-88
2022/02/20 05:32:58;;;;;;;18.38;13.30;;;;;;;;;;5104639;28;20887;-89
2022/02/20 05:35:26;;;;;;;17.83;13.93;;;;;;;;;;5105503;28;20508;-89
2022/02/20 05:37:53;;;;;;;19.75;14.48;;;;;;;;;;5105213;28;20440;-88
2022/02/20 05:40:21;;;;;;;21.83;15.85;;;;;;;;;;5105503;28;20761;-88
2022/02/20 05:42:48;;;;;;;23.33;17.60;;;;;;;;;;5103966;28;20923;-87
2022/02/20 05:45:15;;;;;;;22.38;17.08;;;;;;;;;;5104714;28;20921;-89
2022/02/20 05:47:42;;;;;;;24.50;18.45;;;;;;;;;;5105215;28;20464;-89
2022/02/20 05:50:12;;;;;;;25.95;19.13;;;;;;;;;;5104537;28;20469;-89
2022/02/20 05:52:40;;;;;;;26.33;20.60;;;;;;;;;;5105163;28;20472;-89
2022/02/20 05:55:08;;;;;;;28.95;20.65;;;;;;;;;;5104901;28;20427;-90
2022/02/20 05:57:45;;;;;;;28.48;21.33;;;;;;;;;;5104857;28;20435;-89
2022/02/20 06:00:14;;;;;;;30.30;23.50;;;;;;;;;;5104210;28;20414;-89
2022/02/20 06:02:41;;;;;;;28.35;22.55;;;;;;;;;;5104810;28;20423;-88
2022/02/20 06:05:11;;;;;;;31.95;23.63;;;;;;;;;;5103223;28;20974;-88
2022/02/20 06:07:39;;;;;;;32.92;24.52;;;;;;;;;;5099302;28;20507;-88
2022/02/20 06:10:07;;;;;;;34.90;25.48;;;;;;;;;;5094249;28;21042;-88
2022/02/20 06:12:35;;;;;;;35.90;25.48;;;;;;;;;;5096936;28;20448;-88
2022/02/20 06:15:02;;;;;;;33.63;24.85;;;;;;;;;;5095156;28;20402;-89
2022/02/20 06:17:28;;;;;;;35.13;25.70;;;;;;;;;;5098357;28;20391;-89
2022/02/20 06:19:55;;;;;;;35.35;26.25;;;;;;;;;;5097498;28;20402;-89
2022/02/20 06:22:24;;;;;;;36.65;26.08;;;;;;;;;;5099633;28;20394;-89
2022/02/20 06:24:50;;;;;;;35.22;25.77;;;;;;;;;;5100846;28;20425;-89
2022/02/20 06:27:17;;;;;;;37.38;26.25;;;;;;;;;;5103702;28;20395;-89
2022/02/20 06:29:44;;;;;;;34.53;26.43;;;;;;;;;;5105566;28;20478;-89
2022/02/20 06:32:12;;;;;;;35.97;25.98;;;;;;;;;;5101659;28;20403;-88
2022/02/20 06:34:39;;;;;;;34.58;26.38;;;;;;;;;;5097534;28;20397;-88
2022/02/20 06:37:06;;;;;;;35.38;26.77;;;;;;;;;;5096847;28;20395;-88
2022/02/20 06:39:34;;;;;;;39.13;27.47;;;;;;;;;;5080945;28;20863;-86
2022/02/20 06:42:01;;;;;;;39.75;29.20;;;;;;;;;;5101366;28;20410;-77
2022/02/20 06:44:28;;;;;;;41.40;29.38;;;;;;;;;;5102503;28;20455;-92
2022/02/20 06:46:55;;;;;;;39.38;28.73;;;;;;;;;;5104076;28;20410;-89
2022/02/20 06:49:21;;;;;;;40.55;29.27;;;;;;;;;;5103236;28;20764;-89
2022/02/20 06:51:48;;;;;;;39.67;29.95;;;;;;;;;;5102716;28;20402;-90
2022/02/20 06:54:15;;;;;;;39.15;30.27;;;;;;;;;;5104542;28;20847;-90
2022/02/20 06:56:44;;;;;;;41.15;30.73;;;;;;;;;;5104773;28;20451;-90
2022/02/20 06:59:11;;;;;;;41.85;30.50;;;;;;;;;;5104933;28;20414;-90
2022/02/20 07:01:37;;;;;;;45.20;30.67;;;;;;;;;;5086886;28;20874;-89
2022/02/20 07:04:05;;;;;;;43.00;31.52;;;;;;;;;;5085703;28;20387;-89
2022/02/20 07:06:32;;;;;;;39.40;29.60;;;;;;;;;;5102545;28;21026;-90
2022/02/20 07:09:00;;;;;;;44.60;32.05;;;;;;;;;;5107239;28;20496;-90
2022/02/20 07:11:27;;;;;;;44.17;32.10;;;;;;;;;;5124492;28;20406;-90
2022/02/20 07:13:55;;;;;;;47.03;32.80;;;;;;;;;;5127826;28;20394;-89
2022/02/20 07:16:22;;;;;;;46.70;33.60;;;;;;;;;;5108837;28;20477;-89
2022/02/20 07:18:49;;;;;;;47.77;32.90;;;;;;;;;;5106696;28;20398;-89
2022/02/20 07:21:16;;;;;;;47.30;33.15;;;;;;;;;;5107842;28;20420;-89
2022/02/20 07:23:43;;;;;;;51.72;34.78;;;;;;;;;;5107879;28;20394;-90
2022/02/20 07:26:10;;;;;;;50.00;35.43;;;;;;;;;;5107959;28;20804;-89
2022/02/20 07:28:37;;;;;;;50.60;35.60;;;;;;;;;;5108831;28;20388;-91
2022/02/20 07:31:05;;;;;;;53.80;36.60;;;;;;;;;;5108386;28;20406;-91
2022/02/20 07:33:32;;;;;;;53.92;37.08;;;;;;;;;;5106110;28;20465;-91
2022/02/20 07:35:59;;;;;;;48.95;35.75;;;;;;;;;;5108740;28;20466;-91
2022/02/20 07:38:26;;;;;;;51.13;35.95;;;;;;;;;;5108676;28;20414;-91
2022/02/20 07:40:53;;;;;;;49.83;35.35;;;;;;;;;;5108824;28;20424;-91
2022/02/20 07:43:19;;;;;;;52.25;35.53;;;;;;;;;;5090289;28;20395;-91
2022/02/20 07:45:46;;;;;;;48.92;34.47;;;;;;;;;;5108397;28;20394;-91
2022/02/20 07:48:15;;;;;;;47.17;34.15;;;;;;;;;;5107831;28;20405;-91
2022/02/20 07:50:42;;;;;;;47.97;33.38;;;;;;;;;;5108386;28;20766;-90
2022/02/20 07:53:10;;;;;;;49.72;34.30;;;;;;;;;;5107789;28;20405;-91
2022/02/20 07:55:36;;;;;;;42.57;31.23;;;;;;;;;;5109033;28;20394;-90
2022/02/20 07:58:06;;;;;;;43.15;32.20;;;;;;;;;;5107657;28;20456;-90
2022/02/20 08:00:33;;;;;;;43.83;31.83;;;;;;;;;;5084381;28;20486;-91
2022/02/20 08:03:02;;;;;;;43.63;31.80;;;;;;;;;;5106889;28;20402;-90
2022/02/20 08:05:31;;;;;;;43.13;32.13;;;;;;;;;;5108930;28;20721;-91
2022/02/20 08:07:57;;;;;;;42.78;31.10;;;;;;;;;;5105142;28;20474;-90
2022/02/20 08:10:25;;;;;;;42.38;31.98;;;;;;;;;;5105158;28;20418;-89
2022/02/20 08:12:53;;;;;;;42.25;31.50;;;;;;;;;;5106516;28;20500;-90
2022/02/20 08:15:20;;;;;;;43.70;31.50;;;;;;;;;;5089951;28;20422;-89
2022/02/20 08:17:49;;;;;;;41.83;31.15;;;;;;;;;;5108952;28;21176;-89
2022/02/20 08:20:18;;;;;;;43.92;31.85;;;;;;;;;;5108546;28;20421;-90
2022/02/20 08:22:46;;;;;;;41.20;30.73;;;;;;;;;;5109269;28;20990;-91
2022/02/20 08:25:14;;;;;;;43.53;30.80;;;;;;;;;;5087498;28;20413;-90
2022/02/20 08:27:41;;;;;;;41.07;29.60;;;;;;;;;;5106404;28;20391;-89
2022/02/20 08:30:11;;;;;;;40.92;29.77;;;;;;;;;;5104782;28;20471;-89
2022/02/20 08:32:38;;;;;;;38.50;29.15;;;;;;;;;;5103021;28;20441;-90
2022/02/20 08:35:08;;;;;;;36.00;26.73;;;;;;;;;;5097898;28;20406;-89
2022/02/20 08:37:35;;;;;;;33.67;25.27;;;;;;;;;;5098870;28;20394;-87
2022/02/20 08:40:05;;;;;;;33.40;25.03;;;;;;;;;;5080576;28;20522;-86
2022/02/20 08:42:33;;;;;;;31.98;24.83;;;;;;;;;;5100460;28;20512;-85
2022/02/20 08:45:00;;;;;;;36.70;26.97;;;;;;;;;;5096224;28;20407;-87
2022/02/20 08:47:27;;;;;;;33.75;25.25;;;;;;;;;;5101951;28;20429;-86
2022/02/20 08:49:54;;;;;;;34.37;24.97;;;;;;;;;;5102832;28;20964;-94
2022/02/20 08:52:22;;;;;;;31.77;25.02;;;;;;;;;;5104597;28;20398;-92
2022/02/20 08:54:48;;;;;;;34.38;24.52;;;;;;;;;;5105946;28;20395;-91
2022/02/20 08:57:17;;;;;;;34.10;25.73;;;;;;;;;;5106035;28;20978;-91
2022/02/20 08:59:44;;;;;;;32.03;24.43;;;;;;;;;;5106951;28;20403;-90
2022/02/20 09:02:12;;;;;;;30.50;23.25;;;;;;;;;;5102716;28;20446;-92
2022/02/20 09:04:39;;;;;;;30.63;22.13;;;;;;;;;;5103158;28;20438;-89
2022/02/20 09:07:07;;;;;;;30.02;21.85;;;;;;;;;;5099283;28;20400;-90
2022/02/20 09:09:35;;;;;;;27.70;20.48;;;;;;;;;;5099337;28;20447;-90
2022/02/20 09:12:02;;;;;;;24.75;19.25;;;;;;;;;;5097459;28;20432;-91
2022/02/20 09:14:31;;;;;;;19.05;15.20;;;;;;;;;;5102721;28;20943;-90
2022/02/20 09:16:58;;;;;;;20.07;14.50;;;;;;;;;;5107152;28;20390;-91
2022/02/20 09:19:25;;;;;;;22.35;17.13;;;;;;;;;;5103709;28;20914;-92
2022/02/20 09:21:52;;;;;;;22.90;17.15;;;;;;;;;;5105867;28;20398;-91
2022/02/20 09:24:19;;;;;;;17.95;13.23;;;;;;;;;;5106528;28;20402;-91
2022/02/20 09:26:47;;;;;;;15.35;11.65;;;;;;;;;;5105796;28;20410;-91
2022/02/20 09:29:14;;;;;;;12.82;9.73;;;;;;;;;;5104967;28;20940;-91
2022/02/20 09:31:43;;;;;;;14.70;10.70;;;;;;;;;;5106957;28;20801;-91
2022/02/20 09:34:11;;;;;;;11.43;8.77;;;;;;;;;;5106199;28;20410;-90
2022/02/20 09:36:38;;;;;;;13.68;9.77;;;;;;;;;;5105710;28;20410;-91
2022/02/20 09:39:06;;;;;;;16.95;11.27;;;;;;;;;;5106344;28;20463;-91
2022/02/20 09:41:33;;;;;;;16.60;12.13;;;;;;;;;;5088304;28;21000;-90
2022/02/20 09:44:01;;;;;;;19.52;12.80;;;;;;;;;;5106377;28;20458;-91
2022/02/20 09:46:29;;;;;;;17.10;12.13;;;;;;;;;;5106626;28;20513;-90
2022/02/20 09:48:59;;;;;;;16.92;12.27;;;;;;;;;;5106522;28;20470;-91
2022/02/20 09:51:28;;;;;;;18.38;12.98;;;;;;;;;;5106441;28;20491;-91
2022/02/20 09:53:56;;;;;;;20.13;13.18;;;;;;;;;;5106038;28;20468;-91
2022/02/20 09:56:24;;;;;;;22.77;14.60;;;;;;;;;;5105514;28;20417;-91
2022/02/20 09:58:51;;;;;;;23.95;16.23;;;;;;;;;;5104594;28;20402;-91
2022/02/20 10:01:18;;;;;;;18.27;13.35;;;;;;;;;;5088397;28;20951;-90
2022/02/20 10:03:47;;;;;;;19.90;14.25;;;;;;;;;;5106216;28;20460;-91
2022/02/20 10:06:18;;;;;;;21.40;14.10;;;;;;;;;;5106071;28;20806;-91
2022/02/20 10:08:47;;;;;;;20.73;14.68;;;;;;;;;;5106572;28;21213;-91
2022/02/20 10:11:16;;;;;;;22.52;15.07;;;;;;;;;;5106028;28;20463;-91
2022/02/20 10:13:43;;;;;;;23.05;15.77;;;;;;;;;;5103656;28;20458;-91
2022/02/20 10:16:18;;;;;;;22.45;14.88;;;;;;;;;;5107265;28;20390;-91
2022/02/20 10:18:46;;;;;;;20.35;14.18;;;;;;;;;;5117622;28;20393;-91
2022/02/20 10:21:18;;;;;;;23.20;14.73;;;;;;;;;;5118022;28;20404;-91
2022/02/20 10:23:45;;;;;;;18.50;13.20;;;;;;;;;;5106507;28;20545;-91
2022/02/20 10:26:13;;;;;;;17.20;12.65;;;;;;;;;;5087295;28;20401;-91
2022/02/20 10:29:05;;;;;;;20.63;13.73;;;;;;;;;;5101730;28;20420;-91
2022/02/20 10:31:43;;;;;;;22.40;15.23;;;;;;;;;;5102452;28;20422;-91
2022/02/20 10:34:12;;;;;;;20.77;14.35;;;;;;;;;;5103905;28;20451;-91
2022/02/20 10:36:51;;;;;;;30.20;19.42;;;;;;;;;;5106024;28;20406;-91
2022/02/20 10:39:27;;;;;;;23.02;15.50;;;;;;;;;;5105672;28;20406;-91
2022/02/20 10:41:56;;;;;;;24.40;15.27;;;;;;;;;;5101860;28;20456;-91
2022/02/20 10:44:24;;;;;;;31.63;20.27;;;;;;;;;;5105692;28;20399;-91
2022/02/20 10:47:09;;;;;;;34.95;21.50;;;;;;;;;;5103579;28;20808;-91
2022/02/20 10:49:36;;;;;;;29.83;18.77;;;;;;;;;;5109901;28;20402;-91
2022/02/20 10:52:05;;;;;;;35.95;22.98;;;;;;;;;;5109238;28;20501;-90
2022/02/20 10:54:32;;;;;;;37.90;23.77;;;;;;;;;;5106596;28;20882;-90
2022/02/20 10:56:59;;;;;;;36.05;22.13;;;;;;;;;;5108827;28;20410;-91
2022/02/20 10:59:50;;;;;;;37.30;22.50;;;;;;;;;;5100940;28;20460;-91
2022/02/20 11:02:17;;;;;;;41.80;26.00;;;;;;;;;;5101373;28;20877;-92
2022/02/20 11:04:47;;;;;;;42.17;24.63;;;;;;;;;;5103480;28;20402;-91
2022/02/20 11:07:17;;;;;;;57.28;34.08;;;;;;;;;;5099393;28;20404;-91
2022/02/20 11:09:44;;;;;;;51.25;30.63;;;;;;;;;;5102176;28;20888;-91
2022/02/20 11:12:12;;;;;;;50.35;29.92;;;;;;;;;;5101819;28;20414;-92
2022/02/20 11:14:39;;;;;;;50.50;30.15;;;;;;;;;;5105147;28;20395;-92
2022/02/20 11:17:06;;;;;;;61.85;35.40;;;;;;;;;;5106154;28;20402;-91
2022/02/20 11:19:35;;;;;;;61.95;35.90;;;;;;;;;;5104534;28;20426;-91
2022/02/20 11:22:04;;;;;;;63.60;35.92;;;;;;;;;;5106627;28;20401;-92
2022/02/20 11:24:34;;;;;;;66.15;37.85;;;;;;;;;;5102909;28;20982;-91
2022/02/20 11:27:04;;;;;;;62.65;36.85;;;;;;;;;;5105107;28;20497;-91
2022/02/20 11:29:31;;;;;;;60.00;36.47;;;;;;;;;;5104902;28;20490;-91
2022/02/20 11:31:59;;;;;;;62.30;36.05;;;;;;;;;;5096247;28;20455;-91
2022/02/20 11:34:26;;;;;;;59.65;34.90;;;;;;;;;;5100588;28;20943;-91
2022/02/20 11:36:55;;;;;;;59.22;36.55;;;;;;;;;;5100326;28;20402;-92
2022/02/20 11:39:22;;;;;;;63.72;37.63;;;;;;;;;;5108765;28;20402;-91
2022/02/20 11:42:18;;;;;;;62.67;37.88;;;;;;;;;;5108883;28;20731;-91
2022/02/20 11:44:46;;;;;;;61.40;36.40;;;;;;;;;;5040652;28;20411;-91
2022/02/20 11:47:38;;;;;;;61.33;36.85;;;;;;;;;;5108449;28;20407;-91
2022/02/20 11:50:36;;;;;;;64.60;37.63;;;;;;;;;;5106041;28;20410;-92
2022/02/20 11:53:05;;;;;;;59.75;37.20;;;;;;;;;;5104843;28;20402;-91
2022/02/20 11:55:34;;;;;;;60.13;38.22;;;;;;;;;;5109084;28;20399;-91
2022/02/20 11:58:26;;;;;;;64.97;38.75;;;;;;;;;;5105400;28;20454;-91
2022/02/20 12:01:17;;;;;;;57.92;36.75;;;;;;;;;;5088090;28;20395;-91
2022/02/20 12:04:03;;;;;;;62.10;36.50;;;;;;;;;;5086791;28;20403;-91
2022/02/20 12:06:30;;;;;;;62.58;37.72;;;;;;;;;;5107546;28;20425;-91
2022/02/20 12:08:59;;;;;;;60.35;36.78;;;;;;;;;;5108112;28;20398;-92
2022/02/20 12:11:27;;;;;;;60.13;36.92;;;;;;;;;;5107300;28;20425;-91
2022/02/20 12:13:57;;;;;;;58.58;35.50;;;;;;;;;;5108569;28;20796;-91
2022/02/20 12:16:27;;;;;;;55.63;33.90;;;;;;;;;;5105701;28;20443;-91
2022/02/20 12:19:15;;;;;;;58.33;34.83;;;;;;;;;;5105185;28;20831;-92
2022/02/20 12:22:06;;;;;;;52.65;32.58;;;;;;;;;;5105590;28;20755;-91
2022/02/20 12:24:48;;;;;;;55.40;34.38;;;;;;;;;;5104897;28;20893;-91
2022/02/20 12:27:17;;;;;;;56.37;35.00;;;;;;;;;;5082731;28;20393;-91
2022/02/20 12:29:49;;;;;;;54.47;33.85;;;;;;;;;;5107957;28;20886;-91
2022/02/20 12:32:24;;;;;;;52.53;33.55;;;;;;;;;;5107310;28;20398;-91
2022/02/20 12:34:57;;;;;;;51.47;32.78;;;;;;;;;;5107552;28;20402;-91
2022/02/20 12:37:26;;;;;;;52.47;32.60;;;;;;;;;;5099885;28;20439;-90
2022/02/20 12:39:55;;;;;;;51.00;32.45;;;;;;;;;;5101689;28;20642;-91
2022/02/20 12:42:23;;;;;;;49.97;33.28;;;;;;;;;;5101268;28;20420;-89
2022/02/20 12:44:51;;;;;;;53.80;33.03;;;;;;;;;;5116009;28;20402;-90
2022/02/20 12:47:19;;;;;;;59.55;37.63;;;;;;;;;;5110987;28;20472;-90
2022/02/20 12:49:55;;;;;;;61.97;38.83;;;;;;;;;;5113014;28;20403;-90
2022/02/20 12:52:23;;;;;;;60.20;37.53;;;;;;;;;;5098270;28;20406;-91
2022/02/20 12:54:57;;;;;;;64.30;39.38;;;;;;;;;;5113785;28;20406;-91
2022/02/20 12:57:26;;;;;;;64.17;39.77;;;;;;;;;;5119280;28;20405;-91
2022/02/20 12:59:57;;;;;;;63.13;40.20;;;;;;;;;;5118579;28;20428;-90
2022/02/20 13:02:32;;;;;;;63.72;38.75;;;;;;;;;;5084123;28;20926;-89
2022/02/20 13:05:07;;;;;;;60.00;38.63;;;;;;;;;;5097453;28;20511;-88
2022/02/20 13:07:38;;;;;;;64.82;39.17;;;;;;;;;;5102534;28;20410;-90
2022/02/20 13:10:06;;;;;;;65.90;39.88;;;;;;;;;;5102223;28;20448;-91
2022/02/20 13:12:33;;;;;;;62.45;39.58;;;;;;;;;;5081587;28;20395;-89
2022/02/20 13:15:04;;;;;;;65.75;40.47;;;;;;;;;;5102206;28;20443;-89
2022/02/20 13:17:46;;;;;;;64.00;40.13;;;;;;;;;;5102285;28;20407;-89
2022/02/20 13:20:32;;;;;;;62.15;38.50;;;;;;;;;;5101018;28;20455;-89
2022/02/20 13:23:00;;;;;;;61.50;38.67;;;;;;;;;;5097648;28;20457;-89
2022/02/20 13:25:32;;;;;;;58.75;38.13;;;;;;;;;;5087647;28;20494;-89
2022/02/20 13:28:02;;;;;;;59.67;37.17;;;;;;;;;;5106443;28;20456;-90
2022/02/20 13:30:32;;;;;;;59.00;37.33;;;;;;;;;;5104131;28;20586;-89
2022/02/20 13:33:18;;;;;;;61.78;38.22;;;;;;;;;;5107287;27;20394;-90
2022/02/20 13:35:46;;;;;;;57.95;38.30;;;;;;;;;;5101356;28;20438;-90
2022/02/20 13:38:17;;;;;;;56.95;37.13;;;;;;;;;;5116716;28;20379;-88
2022/02/20 13:40:49;;;;;;;54.65;36.10;;;;;;;;;;5122907;28;20394;-89
2022/02/20 13:43:17;;;;;;;54.05;35.33;;;;;;;;;;5103522;28;20394;-90
2022/02/20 13:45:58;;;;;;;51.90;35.53;;;;;;;;;;5097101;28;20453;-91
2022/02/20 13:48:30;;;;;;;53.63;36.40;;;;;;;;;;5102263;28;20516;-90
2022/02/20 13:51:26;;;;;;;54.87;37.17;;;;;;;;;;5101455;28;20459;-89
2022/02/20 13:53:58;;;;;;;54.65;37.00;;;;;;;;;;5104307;28;20477;-90
2022/02/20 13:56:42;;;;;;;58.22;37.63;;;;;;;;;;5098956;28;20398;-89
2022/02/20 13:59:10;;;;;;;51.80;35.25;;;;;;;;;;5102495;28;20402;-88
2022/02/20 14:01:44;;;;;;;55.00;36.58;;;;;;;;;;5104714;28;20410;-88
2022/02/20 14:04:26;;;;;;;55.33;37.50;;;;;;;;;;5104865;28;20467;-89
2022/02/20 14:06:59;;;;;;;54.47;37.40;;;;;;;;;;5104498;28;20435;-91
2022/02/20 14:09:27;;;;;;;59.33;38.63;;;;;;;;;;5106046;28;20395;-91
2022/02/20 14:12:19;;;;;;;58.05;38.63;;;;;;;;;;5107051;28;20451;-94
2022/02/20 14:15:14;;;;;;;53.97;36.60;;;;;;;;;;5109165;28;20402;-91
2022/02/20 14:17:53;;;;;;;51.80;35.85;;;;;;;;;;5092843;28;21031;-91
2022/02/20 14:20:23;;;;;;;52.10;34.60;;;;;;;;;;5108044;28;20464;-92
2022/02/20 14:22:50;;;;;;;52.67;35.27;;;;;;;;;;5110757;28;20893;-92
2022/02/20 14:25:19;;;;;;;54.15;35.70;;;;;;;;;;5112531;28;20406;-91
2022/02/20 14:27:49;;;;;;;56.37;37.03;;;;;;;;;;5112816;28;20535;-92
2022/02/20 14:30:31;;;;;;;49.97;34.42;;;;;;;;;;5108180;28;20400;-92